sensor_id;sensor_type;location;lat;lon;timestamp;temperature;humidity
1592;DHT22;789;51.612;7.510;2022-12-07T00:01:16;6.90;1.00
1592;DHT22;789;51.612;7.510;2022-12-07T00:03:45;6.90;1.00
1592;DHT22;789;51.612;7.510;2022-12-07T00:06:14;6.90;1.00
1592;DHT22;789;51.612;7.510;2022-12-07T00:08:41;7.00;1.00
1592;DHT22;789;51.612;7.510;2022-12-07T00:11:09;7.00;1.00
1592;DHT22;789;51.612;7.510;2022-12-07T00:13:37;7.00;1.00
1592;DHT22;789;51.612;7.510;2022-12-07T00:16:07;7.00;1.00
1592;DHT22;789;51.612;7.510;2022-12-07T00:18:35;7.00;1.00
1592;DHT22;789;51.612;7.510;2022-12-07T00:21:02;7.00;1.00
1592;DHT22;789;51.612;7.510;2022-12-07T00:23:30;7.00;1.00
1592;DHT22;789;51.612;7.510;2022-12-07T00:26:03;6.90;1.00
1592;DHT22;789;51.612;7.510;2022-12-07T00:28:30;6.80;1.00
1592;DHT22;789;51.612;7.510;2022-12-07T00:31:00;6.80;1.00
1592;DHT22;789;51.612;7.510;2022-12-07T00:33:28;6.80;1.00
1592;DHT22;789;51.612;7.510;2022-12-07T00:35:55;6.90;1.00
1592;DHT22;789;51.612;7.510;2022-12-07T00:38:22;6.90;1.00
1592;DHT22;789;51.612;7.510;2022-12-07T00:40:55;6.90;1.00
1592;DHT22;789;51.612;7.510;2022-12-07T00:43:22;6.90;1.00
1592;DHT22;789;51.612;7.510;2022-12-07T00:45:48;6.90;1.00
1592;DHT22;789;51.612;7.510;2022-12-07T00:48:15;6.90;1.00
1592;DHT22;789;51.612;7.510;2022-12-07T00:50:43;6.80;1.00
1592;DHT22;789;51.612;7.510;2022-12-07T00:53:10;6.80;1.00
1592;DHT22;789;51.612;7.510;2022-12-07T00:55:37;6.80;1.00
1592;DHT22;789;51.612;7.510;2022-12-07T00:58:03;6.90;1.00
1592;DHT22;789;51.612;7.510;2022-12-07T01:00:30;6.90;1.00
1592;DHT22;789;51.612;7.510;2022-12-07T01:02:59;6.80;1.00
1592;DHT22;789;51.612;7.510;2022-12-07T01:05:25;6.80;1.00
1592;DHT22;789;51.612;7.510;2022-12-07T01:07:53;6.80;1.00
1592;DHT22;789;51.612;7.510;2022-12-07T01:10:20;6.80;1.00
1592;DHT22;789;51.612;7.510;2022-12-07T01:12:47;6.80;1.00
1592;DHT22;789;51.612;7.510;2022-12-07T01:15:14;6.90;1.00
1592;DHT22;789;51.612;7.510;2022-12-07T01:17:40;6.90;1.00
1592;DHT22;789;51.612;7.510;2022-12-07T01:20:08;6.90;1.00
1592;DHT22;789;51.612;7.510;2022-12-07T01:22:39;6.90;1.00
1592;DHT22;789;51.612;7.510;2022-12-07T01:25:08;7.00;1.00
1592;DHT22;789;51.612;7.510;2022-12-07T01:27:36;7.00;1.00
1592;DHT22;789;51.612;7.510;2022-12-07T01:30:05;7.00;1.00
1592;DHT22;789;51.612;7.510;2022-12-07T01:32:32;7.00;1.00
1592;DHT22;789;51.612;7.510;2022-12-07T01:34:58;7.00;1.00
1592;DHT22;789;51.612;7.510;2022-12-07T01:37:25;7.00;1.00
1592;DHT22;789;51.612;7.510;2022-12-07T01:39:52;7.00;1.00
1592;DHT22;789;51.612;7.510;2022-12-07T01:42:20;7.00;1.00
1592;DHT22;789;51.612;7.510;2022-12-07T01:47:54;7.00;1.00
1592;DHT22;789;51.612;7.510;2022-12-07T01:50:25;6.90;1.00
1592;DHT22;789;51.612;7.510;2022-12-07T01:52:54;6.80;1.00
1592;DHT22;789;51.612;7.510;2022-12-07T01:55:22;6.90;1.00
1592;DHT22;789;51.612;7.510;2022-12-07T01:57:53;6.80;1.00
1592;DHT22;789;51.612;7.510;2022-12-07T02:00:20;6.80;1.00
1592;DHT22;789;51.612;7.510;2022-12-07T02:02:49;6.70;1.00
1592;DHT22;789;51.612;7.510;2022-12-07T02:05:19;6.70;1.00
1592;DHT22;789;51.612;7.510;2022-12-07T02:07:47;6.70;1.00
1592;DHT22;789;51.612;7.510;2022-12-07T02:10:15;6.70;1.00
1592;DHT22;789;51.612;7.510;2022-12-07T02:12:42;7.00;1.00
1592;DHT22;789;51.612;7.510;2022-12-07T02:15:12;6.80;1.00
1592;DHT22;789;51.612;7.510;2022-12-07T02:17:45;6.80;1.00
1592;DHT22;789;51.612;7.510;2022-12-07T02:20:26;6.80;1.00
1592;DHT22;789;51.612;7.510;2022-12-07T02:23:18;6.80;1.00
1592;DHT22;789;51.612;7.510;2022-12-07T02:26:02;6.70;1.00
1592;DHT22;789;51.612;7.510;2022-12-07T02:28:37;6.80;1.00
1592;DHT22;789;51.612;7.510;2022-12-07T02:31:09;6.70;1.00
1592;DHT22;789;51.612;7.510;2022-12-07T02:33:41;6.70;1.00
1592;DHT22;789;51.612;7.510;2022-12-07T02:36:12;6.80;1.00
1592;DHT22;789;51.612;7.510;2022-12-07T02:38:47;6.80;1.00
1592;DHT22;789;51.612;7.510;2022-12-07T02:41:20;6.80;1.00
1592;DHT22;789;51.612;7.510;2022-12-07T02:43:52;6.80;1.00
1592;DHT22;789;51.612;7.510;2022-12-07T02:46:23;6.80;1.00
1592;DHT22;789;51.612;7.510;2022-12-07T02:48:52;6.80;1.00
1592;DHT22;789;51.612;7.510;2022-12-07T02:51:21;6.80;1.00
1592;DHT22;789;51.612;7.510;2022-12-07T02:53:48;6.80;1.00
1592;DHT22;789;51.612;7.510;2022-12-07T02:56:24;6.80;1.00
1592;DHT22;789;51.612;7.510;2022-12-07T02:59:02;6.80;1.00
1592;DHT22;789;51.612;7.510;2022-12-07T03:01:41;6.80;1.00
1592;DHT22;789;51.612;7.510;2022-12-07T03:04:21;6.80;1.00
1592;DHT22;789;51.612;7.510;2022-12-07T03:06:56;6.80;1.00
1592;DHT22;789;51.612;7.510;2022-12-07T03:09:35;6.70;1.00
1592;DHT22;789;51.612;7.510;2022-12-07T03:12:09;6.70;1.00
1592;DHT22;789;51.612;7.510;2022-12-07T03:14:44;6.70;1.00
1592;DHT22;789;51.612;7.510;2022-12-07T03:17:16;6.60;1.00
1592;DHT22;789;51.612;7.510;2022-12-07T03:19:45;6.60;1.00
1592;DHT22;789;51.612;7.510;2022-12-07T03:22:13;6.50;1.00
1592;DHT22;789;51.612;7.510;2022-12-07T03:24:43;6.50;1.00
1592;DHT22;789;51.612;7.510;2022-12-07T03:27:15;6.50;1.00
1592;DHT22;789;51.612;7.510;2022-12-07T03:29:45;6.40;1.00
1592;DHT22;789;51.612;7.510;2022-12-07T03:32:19;6.40;1.00
1592;DHT22;789;51.612;7.510;2022-12-07T03:34:53;6.30;1.00
1592;DHT22;789;51.612;7.510;2022-12-07T03:37:31;6.30;1.00
1592;DHT22;789;51.612;7.510;2022-12-07T03:40:04;6.20;1.00
1592;DHT22;789;51.612;7.510;2022-12-07T03:42:33;6.20;1.00
1592;DHT22;789;51.612;7.510;2022-12-07T03:45:01;6.20;1.00
1592;DHT22;789;51.612;7.510;2022-12-07T03:47:33;6.20;1.00
1592;DHT22;789;51.612;7.510;2022-12-07T03:50:06;6.00;1.00
1592;DHT22;789;51.612;7.510;2022-12-07T03:52:39;6.00;1.00
1592;DHT22;789;51.612;7.510;2022-12-07T03:55:09;6.00;1.00
1592;DHT22;789;51.612;7.510;2022-12-07T03:57:37;6.00;1.00
1592;DHT22;789;51.612;7.510;2022-12-07T04:00:07;6.00;1.00
1592;DHT22;789;51.612;7.510;2022-12-07T04:02:36;5.90;1.00
1592;DHT22;789;51.612;7.510;2022-12-07T04:05:03;5.90;1.00
1592;DHT22;789;51.612;7.510;2022-12-07T04:07:30;5.80;1.00
1592;DHT22;789;51.612;7.510;2022-12-07T04:09:57;5.80;1.00
1592;DHT22;789;51.612;7.510;2022-12-07T04:12:23;5.90;1.00
1592;DHT22;789;51.612;7.510;2022-12-07T04:14:50;5.90;1.00
1592;DHT22;789;51.612;7.510;2022-12-07T04:17:17;5.90;1.00
1592;DHT22;789;51.612;7.510;2022-12-07T04:19:45;5.90;1.00
1592;DHT22;789;51.612;7.510;2022-12-07T04:22:12;5.90;1.00
1592;DHT22;789;51.612;7.510;2022-12-07T04:24:38;5.90;1.00
1592;DHT22;789;51.612;7.510;2022-12-07T04:27:05;5.90;1.00
1592;DHT22;789;51.612;7.510;2022-12-07T04:29:32;5.90;1.00
1592;DHT22;789;51.612;7.510;2022-12-07T04:31:58;5.90;1.00
1592;DHT22;789;51.612;7.510;2022-12-07T04:34:25;5.90;1.00
1592;DHT22;789;51.612;7.510;2022-12-07T04:36:53;5.80;1.00
1592;DHT22;789;51.612;7.510;2022-12-07T04:39:23;5.80;1.00
1592;DHT22;789;51.612;7.510;2022-12-07T04:41:50;5.80;1.00
1592;DHT22;789;51.612;7.510;2022-12-07T04:44:17;5.80;1.00
1592;DHT22;789;51.612;7.510;2022-12-07T04:46:44;5.70;1.00
1592;DHT22;789;51.612;7.510;2022-12-07T04:49:12;5.70;1.00
1592;DHT22;789;51.612;7.510;2022-12-07T04:51:39;5.70;1.00
1592;DHT22;789;51.612;7.510;2022-12-07T04:54:07;5.70;1.00
1592;DHT22;789;51.612;7.510;2022-12-07T04:56:35;5.80;1.00
1592;DHT22;789;51.612;7.510;2022-12-07T04:59:02;5.80;1.00
1592;DHT22;789;51.612;7.510;2022-12-07T05:01:29;5.80;1.00
1592;DHT22;789;51.612;7.510;2022-12-07T05:03:56;5.80;1.00
1592;DHT22;789;51.612;7.510;2022-12-07T05:06:23;5.80;1.00
1592;DHT22;789;51.612;7.510;2022-12-07T05:08:50;5.80;1.00
1592;DHT22;789;51.612;7.510;2022-12-07T05:11:18;5.80;1.00
1592;DHT22;789;51.612;7.510;2022-12-07T05:13:59;5.80;1.00
1592;DHT22;789;51.612;7.510;2022-12-07T05:16:26;5.80;1.00
1592;DHT22;789;51.612;7.510;2022-12-07T05:18:52;5.80;1.00
1592;DHT22;789;51.612;7.510;2022-12-07T05:21:19;5.80;1.00
1592;DHT22;789;51.612;7.510;2022-12-07T05:23:46;5.80;1.00
1592;DHT22;789;51.612;7.510;2022-12-07T05:26:13;5.80;1.00
1592;DHT22;789;51.612;7.510;2022-12-07T05:28:41;5.80;1.00
1592;DHT22;789;51.612;7.510;2022-12-07T05:31:07;5.70;1.00
1592;DHT22;789;51.612;7.510;2022-12-07T05:33:34;5.70;1.00
1592;DHT22;789;51.612;7.510;2022-12-07T05:36:01;5.70;1.00
1592;DHT22;789;51.612;7.510;2022-12-07T05:38:31;5.70;1.00
1592;DHT22;789;51.612;7.510;2022-12-07T05:41:00;5.60;1.00
1592;DHT22;789;51.612;7.510;2022-12-07T05:43:27;5.60;1.00
1592;DHT22;789;51.612;7.510;2022-12-07T05:45:56;5.60;1.00
1592;DHT22;789;51.612;7.510;2022-12-07T05:48:23;5.60;1.00
1592;DHT22;789;51.612;7.510;2022-12-07T05:50:51;5.60;1.00
1592;DHT22;789;51.612;7.510;2022-12-07T05:53:18;5.60;1.00
1592;DHT22;789;51.612;7.510;2022-12-07T05:55:45;5.70;1.00
1592;DHT22;789;51.612;7.510;2022-12-07T05:58:11;5.60;1.00
1592;DHT22;789;51.612;7.510;2022-12-07T06:00:57;5.70;1.00
1592;DHT22;789;51.612;7.510;2022-12-07T06:03:24;5.60;1.00
1592;DHT22;789;51.612;7.510;2022-12-07T06:05:52;5.60;1.00
1592;DHT22;789;51.612;7.510;2022-12-07T06:08:18;5.70;1.00
1592;DHT22;789;51.612;7.510;2022-12-07T06:10:47;5.70;1.00
1592;DHT22;789;51.612;7.510;2022-12-07T06:13:33;5.70;1.00
1592;DHT22;789;51.612;7.510;2022-12-07T06:16:00;5.70;1.00
1592;DHT22;789;51.612;7.510;2022-12-07T06:18:27;5.70;1.00
1592;DHT22;789;51.612;7.510;2022-12-07T06:20:54;5.70;1.00
1592;DHT22;789;51.612;7.510;2022-12-07T06:23:20;5.70;1.00
1592;DHT22;789;51.612;7.510;2022-12-07T06:25:47;5.70;1.00
1592;DHT22;789;51.612;7.510;2022-12-07T06:28:14;5.70;1.00
1592;DHT22;789;51.612;7.510;2022-12-07T06:30:41;5.70;1.00
1592;DHT22;789;51.612;7.510;2022-12-07T06:33:09;5.70;1.00
1592;DHT22;789;51.612;7.510;2022-12-07T06:35:35;5.60;1.00
1592;DHT22;789;51.612;7.510;2022-12-07T06:38:02;5.60;1.00
1592;DHT22;789;51.612;7.510;2022-12-07T06:40:29;5.60;1.00
1592;DHT22;789;51.612;7.510;2022-12-07T06:42:55;5.50;1.00
1592;DHT22;789;51.612;7.510;2022-12-07T06:45:22;5.50;1.00
1592;DHT22;789;51.612;7.510;2022-12-07T06:47:49;5.60;1.00
1592;DHT22;789;51.612;7.510;2022-12-07T06:50:19;5.60;1.00
1592;DHT22;789;51.612;7.510;2022-12-07T06:52:45;5.50;1.00
1592;DHT22;789;51.612;7.510;2022-12-07T06:55:12;5.40;1.00
1592;DHT22;789;51.612;7.510;2022-12-07T06:57:39;5.50;1.00
1592;DHT22;789;51.612;7.510;2022-12-07T07:00:06;5.50;1.00
1592;DHT22;789;51.612;7.510;2022-12-07T07:02:33;5.60;1.00
1592;DHT22;789;51.612;7.510;2022-12-07T07:05:00;5.60;1.00
1592;DHT22;789;51.612;7.510;2022-12-07T07:07:28;5.60;1.00
1592;DHT22;789;51.612;7.510;2022-12-07T07:09:55;5.60;1.00
1592;DHT22;789;51.612;7.510;2022-12-07T07:12:21;5.60;1.00
1592;DHT22;789;51.612;7.510;2022-12-07T07:14:48;5.60;1.00
1592;DHT22;789;51.612;7.510;2022-12-07T07:17:15;5.50;1.00
1592;DHT22;789;51.612;7.510;2022-12-07T07:19:44;5.60;1.00
1592;DHT22;789;51.612;7.510;2022-12-07T07:22:10;5.60;1.00
1592;DHT22;789;51.612;7.510;2022-12-07T07:24:39;5.60;1.00
1592;DHT22;789;51.612;7.510;2022-12-07T07:27:06;5.60;1.00
1592;DHT22;789;51.612;7.510;2022-12-07T07:29:32;5.60;1.00
1592;DHT22;789;51.612;7.510;2022-12-07T07:31:59;5.50;1.00
1592;DHT22;789;51.612;7.510;2022-12-07T07:34:26;5.50;1.00
1592;DHT22;789;51.612;7.510;2022-12-07T07:36:53;5.50;1.00
1592;DHT22;789;51.612;7.510;2022-12-07T07:39:23;5.40;1.00
1592;DHT22;789;51.612;7.510;2022-12-07T07:41:51;5.50;1.00
1592;DHT22;789;51.612;7.510;2022-12-07T07:44:18;5.50;1.00
1592;DHT22;789;51.612;7.510;2022-12-07T07:46:44;5.50;1.00
1592;DHT22;789;51.612;7.510;2022-12-07T07:49:11;5.50;1.00
1592;DHT22;789;51.612;7.510;2022-12-07T07:51:38;5.50;1.00
1592;DHT22;789;51.612;7.510;2022-12-07T07:54:06;5.50;1.00
1592;DHT22;789;51.612;7.510;2022-12-07T07:56:33;5.60;1.00
1592;DHT22;789;51.612;7.510;2022-12-07T07:59:01;5.60;1.00
1592;DHT22;789;51.612;7.510;2022-12-07T08:01:30;5.60;1.00
1592;DHT22;789;51.612;7.510;2022-12-07T08:03:57;5.70;1.00
1592;DHT22;789;51.612;7.510;2022-12-07T08:06:23;5.70;1.00
1592;DHT22;789;51.612;7.510;2022-12-07T08:08:50;5.90;1.00
1592;DHT22;789;51.612;7.510;2022-12-07T08:11:17;5.80;1.00
1592;DHT22;789;51.612;7.510;2022-12-07T08:13:45;5.80;1.00
1592;DHT22;789;51.612;7.510;2022-12-07T08:16:14;5.80;1.00
1592;DHT22;789;51.612;7.510;2022-12-07T08:18:42;5.80;1.00
1592;DHT22;789;51.612;7.510;2022-12-07T08:21:11;5.80;1.00
1592;DHT22;789;51.612;7.510;2022-12-07T08:23:38;5.80;1.00
1592;DHT22;789;51.612;7.510;2022-12-07T08:26:06;5.90;1.00
1592;DHT22;789;51.612;7.510;2022-12-07T08:28:34;5.90;1.00
1592;DHT22;789;51.612;7.510;2022-12-07T08:31:00;6.00;1.00
1592;DHT22;789;51.612;7.510;2022-12-07T08:33:29;6.30;1.00
1592;DHT22;789;51.612;7.510;2022-12-07T08:36:00;6.70;1.00
1592;DHT22;789;51.612;7.510;2022-12-07T08:38:29;7.30;1.00
1592;DHT22;789;51.612;7.510;2022-12-07T08:40:57;7.60;1.00
1592;DHT22;789;51.612;7.510;2022-12-07T08:43:24;7.70;1.00
1592;DHT22;789;51.612;7.510;2022-12-07T08:45:56;7.70;1.00
1592;DHT22;789;51.612;7.510;2022-12-07T08:48:39;7.70;1.00
1592;DHT22;789;51.612;7.510;2022-12-07T08:51:07;7.60;1.00
1592;DHT22;789;51.612;7.510;2022-12-07T08:53:35;7.50;1.00
1592;DHT22;789;51.612;7.510;2022-12-07T08:56:02;7.40;1.00
1592;DHT22;789;51.612;7.510;2022-12-07T08:58:30;7.30;1.00
1592;DHT22;789;51.612;7.510;2022-12-07T09:00:57;7.20;1.00
1592;DHT22;789;51.612;7.510;2022-12-07T09:03:23;7.10;1.00
1592;DHT22;789;51.612;7.510;2022-12-07T09:05:52;7.10;1.00
1592;DHT22;789;51.612;7.510;2022-12-07T09:08:19;7.00;1.00
1592;DHT22;789;51.612;7.510;2022-12-07T09:10:47;7.00;1.00
1592;DHT22;789;51.612;7.510;2022-12-07T09:13:14;7.00;1.00
1592;DHT22;789;51.612;7.510;2022-12-07T09:15:41;7.10;1.00
1592;DHT22;789;51.612;7.510;2022-12-07T09:18:12;7.20;1.00
1592;DHT22;789;51.612;7.510;2022-12-07T09:20:39;7.30;1.00
1592;DHT22;789;51.612;7.510;2022-12-07T09:23:09;7.40;1.00
1592;DHT22;789;51.612;7.510;2022-12-07T09:25:36;7.70;1.00
1592;DHT22;789;51.612;7.510;2022-12-07T09:28:03;7.80;1.00
1592;DHT22;789;51.612;7.510;2022-12-07T09:30:30;7.90;1.00
1592;DHT22;789;51.612;7.510;2022-12-07T09:32:57;8.30;1.00
1592;DHT22;789;51.612;7.510;2022-12-07T09:35:24;8.80;1.00
1592;DHT22;789;51.612;7.510;2022-12-07T09:37:52;9.20;1.00
1592;DHT22;789;51.612;7.510;2022-12-07T09:40:23;9.60;1.00
1592;DHT22;789;51.612;7.510;2022-12-07T09:42:52;9.90;1.00
1592;DHT22;789;51.612;7.510;2022-12-07T09:45:22;10.20;1.00
1592;DHT22;789;51.612;7.510;2022-12-07T09:47:52;10.40;1.00
1592;DHT22;789;51.612;7.510;2022-12-07T09:50:23;10.40;1.00
1592;DHT22;789;51.612;7.510;2022-12-07T09:52:51;10.30;1.00
1592;DHT22;789;51.612;7.510;2022-12-07T09:55:26;10.30;1.00
1592;DHT22;789;51.612;7.510;2022-12-07T09:57:53;10.50;1.00
1592;DHT22;789;51.612;7.510;2022-12-07T10:00:22;10.70;1.00
1592;DHT22;789;51.612;7.510;2022-12-07T10:02:55;11.10;1.00
1592;DHT22;789;51.612;7.510;2022-12-07T10:05:25;11.60;1.00
1592;DHT22;789;51.612;7.510;2022-12-07T10:07:54;12.10;1.00
1592;DHT22;789;51.612;7.510;2022-12-07T10:10:25;12.30;1.00
1592;DHT22;789;51.612;7.510;2022-12-07T10:12:55;12.30;1.00
1592;DHT22;789;51.612;7.510;2022-12-07T10:15:22;12.20;1.00
1592;DHT22;789;51.612;7.510;2022-12-07T10:17:50;12.10;1.00
1592;DHT22;789;51.612;7.510;2022-12-07T10:20:21;12.10;1.00
1592;DHT22;789;51.612;7.510;2022-12-07T10:23:00;11.80;1.00
1592;DHT22;789;51.612;7.510;2022-12-07T10:25:30;12.00;1.00
1592;DHT22;789;51.612;7.510;2022-12-07T10:28:12;12.40;1.00
1592;DHT22;789;51.612;7.510;2022-12-07T10:30:48;13.00;1.00
1592;DHT22;789;51.612;7.510;2022-12-07T10:33:28;13.70;1.00
1592;DHT22;789;51.612;7.510;2022-12-07T10:35:55;14.80;1.00
1592;DHT22;789;51.612;7.510;2022-12-07T10:38:24;15.90;1.00
1592;DHT22;789;51.612;7.510;2022-12-07T10:41:03;17.10;1.00
1592;DHT22;789;51.612;7.510;2022-12-07T10:43:30;17.90;1.00
1592;DHT22;789;51.612;7.510;2022-12-07T10:46:18;18.10;1.00
1592;DHT22;789;51.612;7.510;2022-12-07T10:48:54;18.20;1.00
1592;DHT22;789;51.612;7.510;2022-12-07T10:51:27;18.80;1.00
1592;DHT22;789;51.612;7.510;2022-12-07T10:54:07;18.60;1.00
1592;DHT22;789;51.612;7.510;2022-12-07T10:56:57;18.00;1.00
1592;DHT22;789;51.612;7.510;2022-12-07T10:59:51;16.90;1.00
1592;DHT22;789;51.612;7.510;2022-12-07T11:02:31;15.70;1.00
1592;DHT22;789;51.612;7.510;2022-12-07T11:05:06;14.40;1.00
1592;DHT22;789;51.612;7.510;2022-12-07T11:07:45;13.50;1.00
1592;DHT22;789;51.612;7.510;2022-12-07T11:10:18;12.60;1.00
1592;DHT22;789;51.612;7.510;2022-12-07T11:13:09;12.00;1.00
1592;DHT22;789;51.612;7.510;2022-12-07T11:15:51;12.30;1.00
1592;DHT22;789;51.612;7.510;2022-12-07T11:18:23;12.60;1.00
1592;DHT22;789;51.612;7.510;2022-12-07T11:20:56;12.60;1.00
1592;DHT22;789;51.612;7.510;2022-12-07T11:23:32;12.40;1.00
1592;DHT22;789;51.612;7.510;2022-12-07T11:26:07;12.00;1.00
1592;DHT22;789;51.612;7.510;2022-12-07T11:28:52;11.50;1.00
1592;DHT22;789;51.612;7.510;2022-12-07T11:31:29;11.00;1.00
1592;DHT22;789;51.612;7.510;2022-12-07T11:34:04;10.70;1.00
1592;DHT22;789;51.612;7.510;2022-12-07T11:36:37;10.30;1.00
1592;DHT22;789;51.612;7.510;2022-12-07T11:39:12;10.00;1.00
1592;DHT22;789;51.612;7.510;2022-12-07T11:41:42;9.80;1.00
1592;DHT22;789;51.612;7.510;2022-12-07T11:44:23;9.60;1.00
1592;DHT22;789;51.612;7.510;2022-12-07T11:46:55;9.50;1.00
1592;DHT22;789;51.612;7.510;2022-12-07T11:49:35;9.30;1.00
1592;DHT22;789;51.612;7.510;2022-12-07T11:52:06;9.30;1.00
1592;DHT22;789;51.612;7.510;2022-12-07T11:54:42;9.20;1.00
1592;DHT22;789;51.612;7.510;2022-12-07T11:57:15;9.10;1.00
1592;DHT22;789;51.612;7.510;2022-12-07T11:59:48;9.00;1.00
1592;DHT22;789;51.612;7.510;2022-12-07T12:02:20;8.90;1.00
1592;DHT22;789;51.612;7.510;2022-12-07T12:04:52;8.90;1.00
1592;DHT22;789;51.612;7.510;2022-12-07T12:07:23;9.10;1.00
1592;DHT22;789;51.612;7.510;2022-12-07T12:09:54;9.30;1.00
1592;DHT22;789;51.612;7.510;2022-12-07T12:12:45;9.60;1.00
1592;DHT22;789;51.612;7.510;2022-12-07T12:15:27;9.80;1.00
1592;DHT22;789;51.612;7.510;2022-12-07T12:18:18;9.70;1.00
1592;DHT22;789;51.612;7.510;2022-12-07T12:20:51;9.50;1.00
1592;DHT22;789;51.612;7.510;2022-12-07T12:23:21;9.40;1.00
1592;DHT22;789;51.612;7.510;2022-12-07T12:25:50;9.30;1.00
1592;DHT22;789;51.612;7.510;2022-12-07T12:28:24;9.10;1.00
1592;DHT22;789;51.612;7.510;2022-12-07T12:31:10;9.00;1.00
1592;DHT22;789;51.612;7.510;2022-12-07T12:33:42;8.70;1.00
1592;DHT22;789;51.612;7.510;2022-12-07T12:36:22;8.60;1.00
1592;DHT22;789;51.612;7.510;2022-12-07T12:38:51;8.60;1.00
1592;DHT22;789;51.612;7.510;2022-12-07T12:45:03;8.70;1.00
1592;DHT22;789;51.612;7.510;2022-12-07T12:50:27;8.80;1.00
1592;DHT22;789;51.612;7.510;2022-12-07T12:59:24;9.30;1.00
1592;DHT22;789;51.612;7.510;2022-12-07T13:01:53;9.50;1.00
1592;DHT22;789;51.612;7.510;2022-12-07T13:04:28;9.50;1.00
1592;DHT22;789;51.612;7.510;2022-12-07T13:06:57;9.40;1.00
1592;DHT22;789;51.612;7.510;2022-12-07T13:09:26;9.30;1.00
1592;DHT22;789;51.612;7.510;2022-12-07T13:12:05;9.30;1.00
1592;DHT22;789;51.612;7.510;2022-12-07T13:14:56;9.20;1.00
1592;DHT22;789;51.612;7.510;2022-12-07T13:20:50;8.90;1.00
1592;DHT22;789;51.612;7.510;2022-12-07T13:23:21;8.70;1.00
1592;DHT22;789;51.612;7.510;2022-12-07T13:25:54;8.60;1.00
1592;DHT22;789;51.612;7.510;2022-12-07T13:28:22;8.50;1.00
1592;DHT22;789;51.612;7.510;2022-12-07T13:31:29;8.40;1.00
1592;DHT22;789;51.612;7.510;2022-12-07T13:33:57;8.30;1.00
1592;DHT22;789;51.612;7.510;2022-12-07T13:36:27;8.20;1.00
1592;DHT22;789;51.612;7.510;2022-12-07T13:38:56;8.20;1.00
1592;DHT22;789;51.612;7.510;2022-12-07T13:41:24;8.00;1.00
1592;DHT22;789;51.612;7.510;2022-12-07T13:43:59;8.00;1.00
1592;DHT22;789;51.612;7.510;2022-12-07T13:46:33;8.00;1.00
1592;DHT22;789;51.612;7.510;2022-12-07T13:49:02;8.00;1.00
1592;DHT22;789;51.612;7.510;2022-12-07T13:51:34;8.00;1.00
1592;DHT22;789;51.612;7.510;2022-12-07T13:54:10;7.90;1.00
1592;DHT22;789;51.612;7.510;2022-12-07T13:56:37;7.90;1.00
1592;DHT22;789;51.612;7.510;2022-12-07T13:59:10;7.80;1.00
1592;DHT22;789;51.612;7.510;2022-12-07T14:01:38;7.80;1.00
1592;DHT22;789;51.612;7.510;2022-12-07T14:04:20;7.80;1.00
1592;DHT22;789;51.612;7.510;2022-12-07T14:06:55;7.80;1.00
1592;DHT22;789;51.612;7.510;2022-12-07T14:09:23;7.70;1.00
1592;DHT22;789;51.612;7.510;2022-12-07T14:11:53;7.70;1.00
1592;DHT22;789;51.612;7.510;2022-12-07T14:14:22;7.50;1.00
1592;DHT22;789;51.612;7.510;2022-12-07T14:17:00;7.60;1.00
1592;DHT22;789;51.612;7.510;2022-12-07T14:19:48;7.60;1.00
1592;DHT22;789;51.612;7.510;2022-12-07T14:22:35;7.60;1.00
1592;DHT22;789;51.612;7.510;2022-12-07T14:25:18;7.50;1.00
1592;DHT22;789;51.612;7.510;2022-12-07T14:27:51;7.70;1.00
1592;DHT22;789;51.612;7.510;2022-12-07T14:30:27;7.60;1.00
1592;DHT22;789;51.612;7.510;2022-12-07T14:32:58;7.60;1.00
1592;DHT22;789;51.612;7.510;2022-12-07T14:35:26;7.70;1.00
1592;DHT22;789;51.612;7.510;2022-12-07T14:37:54;7.70;1.00
1592;DHT22;789;51.612;7.510;2022-12-07T14:40:24;7.70;1.00
1592;DHT22;789;51.612;7.510;2022-12-07T14:42:55;7.70;1.00
1592;DHT22;789;51.612;7.510;2022-12-07T14:45:23;7.70;1.00
1592;DHT22;789;51.612;7.510;2022-12-07T14:47:49;7.70;1.00
1592;DHT22;789;51.612;7.510;2022-12-07T14:50:18;7.60;1.00
1592;DHT22;789;51.612;7.510;2022-12-07T14:52:50;7.50;1.00
1592;DHT22;789;51.612;7.510;2022-12-07T14:55:23;7.40;1.00
1592;DHT22;789;51.612;7.510;2022-12-07T14:57:52;7.30;1.00
1592;DHT22;789;51.612;7.510;2022-12-07T15:00:20;7.30;1.00
1592;DHT22;789;51.612;7.510;2022-12-07T15:02:48;7.30;1.00
1592;DHT22;789;51.612;7.510;2022-12-07T15:05:16;7.20;1.00
1592;DHT22;789;51.612;7.510;2022-12-07T15:07:43;7.20;1.00
1592;DHT22;789;51.612;7.510;2022-12-07T15:10:15;7.10;1.00
1592;DHT22;789;51.612;7.510;2022-12-07T15:12:44;7.10;1.00
1592;DHT22;789;51.612;7.510;2022-12-07T15:15:11;7.00;1.00
1592;DHT22;789;51.612;7.510;2022-12-07T15:17:38;7.00;1.00
1592;DHT22;789;51.612;7.510;2022-12-07T15:20:07;7.00;1.00
1592;DHT22;789;51.612;7.510;2022-12-07T15:22:34;6.90;1.00
1592;DHT22;789;51.612;7.510;2022-12-07T15:25:01;6.90;1.00
1592;DHT22;789;51.612;7.510;2022-12-07T15:27:30;6.90;1.00
1592;DHT22;789;51.612;7.510;2022-12-07T15:29:58;6.80;1.00
1592;DHT22;789;51.612;7.510;2022-12-07T15:32:24;6.70;1.00
1592;DHT22;789;51.612;7.510;2022-12-07T15:34:51;6.80;1.00
1592;DHT22;789;51.612;7.510;2022-12-07T15:37:18;6.70;1.00
1592;DHT22;789;51.612;7.510;2022-12-07T15:39:44;6.60;1.00
1592;DHT22;789;51.612;7.510;2022-12-07T15:42:11;6.60;1.00
1592;DHT22;789;51.612;7.510;2022-12-07T15:44:38;6.60;1.00
1592;DHT22;789;51.612;7.510;2022-12-07T15:47:24;6.60;1.00
1592;DHT22;789;51.612;7.510;2022-12-07T15:49:50;6.60;1.00
1592;DHT22;789;51.612;7.510;2022-12-07T15:52:17;6.50;1.00
1592;DHT22;789;51.612;7.510;2022-12-07T15:54:47;6.50;1.00
1592;DHT22;789;51.612;7.510;2022-12-07T15:57:14;6.50;1.00
1592;DHT22;789;51.612;7.510;2022-12-07T15:59:41;6.60;1.00
1592;DHT22;789;51.612;7.510;2022-12-07T16:02:09;6.60;1.00
1592;DHT22;789;51.612;7.510;2022-12-07T16:04:37;6.70;1.00
1592;DHT22;789;51.612;7.510;2022-12-07T16:07:04;6.70;1.00
1592;DHT22;789;51.612;7.510;2022-12-07T16:09:31;6.70;1.00
1592;DHT22;789;51.612;7.510;2022-12-07T16:11:58;6.80;1.00
1592;DHT22;789;51.612;7.510;2022-12-07T16:14:25;6.80;1.00
1592;DHT22;789;51.612;7.510;2022-12-07T16:16:51;6.80;1.00
1592;DHT22;789;51.612;7.510;2022-12-07T16:19:20;6.90;1.00
1592;DHT22;789;51.612;7.510;2022-12-07T16:21:48;6.90;1.00
1592;DHT22;789;51.612;7.510;2022-12-07T16:24:14;6.80;1.00
1592;DHT22;789;51.612;7.510;2022-12-07T16:26:42;6.90;1.00
1592;DHT22;789;51.612;7.510;2022-12-07T16:29:11;6.90;1.00
1592;DHT22;789;51.612;7.510;2022-12-07T16:31:38;7.00;1.00
1592;DHT22;789;51.612;7.510;2022-12-07T16:34:05;6.90;1.00
1592;DHT22;789;51.612;7.510;2022-12-07T16:36:32;6.90;1.00
1592;DHT22;789;51.612;7.510;2022-12-07T16:39:01;7.00;1.00
1592;DHT22;789;51.612;7.510;2022-12-07T16:41:28;7.00;1.00
1592;DHT22;789;51.612;7.510;2022-12-07T16:43:54;7.00;1.00
1592;DHT22;789;51.612;7.510;2022-12-07T16:46:21;6.90;1.00
1592;DHT22;789;51.612;7.510;2022-12-07T16:48:48;6.90;1.00
1592;DHT22;789;51.612;7.510;2022-12-07T16:51:15;6.90;1.00
1592;DHT22;789;51.612;7.510;2022-12-07T16:53:43;6.90;1.00
1592;DHT22;789;51.612;7.510;2022-12-07T16:56:12;7.00;1.00
1592;DHT22;789;51.612;7.510;2022-12-07T16:58:40;6.90;1.00
1592;DHT22;789;51.612;7.510;2022-12-07T17:01:11;6.90;1.00
1592;DHT22;789;51.612;7.510;2022-12-07T17:03:38;6.90;1.00
1592;DHT22;789;51.612;7.510;2022-12-07T17:06:12;6.80;1.00
1592;DHT22;789;51.612;7.510;2022-12-07T17:08:40;6.90;1.00
1592;DHT22;789;51.612;7.510;2022-12-07T17:11:12;6.90;1.00
1592;DHT22;789;51.612;7.510;2022-12-07T17:13:39;6.90;1.00
1592;DHT22;789;51.612;7.510;2022-12-07T17:16:25;6.90;1.00
1592;DHT22;789;51.612;7.510;2022-12-07T17:18:52;6.80;1.00
1592;DHT22;789;51.612;7.510;2022-12-07T17:21:19;6.80;1.00
1592;DHT22;789;51.612;7.510;2022-12-07T17:23:46;6.80;1.00
1592;DHT22;789;51.612;7.510;2022-12-07T17:26:16;6.80;1.00
1592;DHT22;789;51.612;7.510;2022-12-07T17:28:46;6.80;1.00